weather June 14, 2001 (Iceland/UK)

@

@

2001/06/14 22:00 UTC

BIRK 31008KT 9999 FEW031 SCT057 08/05 Q1022

2001/06/14 22:50 UTC

EGPF 142250Z 06013KT 9999 -DZ BKN016 10/07 Q1012


Ads by TOK2